Time;durP1;ratioP1;P1;durP2;ratioP2;P2;SDS_P1;SDS_P2;PMS_P1;PMS_P2;Temp;Humidity;BMP_temperature;BMP_pressure;BME280_temperature;BME280_humidity;BME280_pressure;Samples;Min_cycle;Max_cycle;Signal;HPM_P1;HPM_P2
2023/09/14 00:00:56;;;;;;;1.85;1.13;;;;;;;13.16;100.00;101746.97;5076697;28;20475;-69
2023/09/14 00:03:22;;;;;;;2.50;1.20;;;;;;;13.02;100.00;101739.78;5077323;28;20564;-69
2023/09/14 00:05:49;;;;;;;3.25;1.45;;;;;;;12.92;100.00;101717.63;5059175;28;20031;-69
2023/09/14 00:08:15;;;;;;;5.35;1.40;;;;;;;12.92;100.00;101725.75;5077183;28;20024;-69
2023/09/14 00:10:41;;;;;;;2.50;0.88;;;;;;;12.85;100.00;101749.16;5042131;28;20040;-68
2023/09/14 00:13:09;;;;;;;3.53;1.10;;;;;;;12.92;100.00;101744.66;5059749;28;20032;-69
2023/09/14 00:15:35;;;;;;;3.65;1.17;;;;;;;12.74;100.00;101753.16;5077840;28;20052;-69
2023/09/14 00:18:01;;;;;;;1.63;1.08;;;;;;;12.84;100.00;101747.47;5059513;28;20040;-69
2023/09/14 00:20:30;;;;;;;1.98;1.25;;;;;;;12.59;100.00;101745.09;5058836;28;20030;-68
2023/09/14 00:22:56;;;;;;;3.42;1.15;;;;;;;12.74;100.00;101746.94;5078044;28;20031;-69
2023/09/14 00:25:23;;;;;;;3.47;1.10;;;;;;;12.58;100.00;101748.84;5077769;28;20509;-69
2023/09/14 00:27:50;;;;;;;2.22;1.20;;;;;;;12.75;100.00;101756.69;5076534;28;20548;-68
2023/09/14 00:30:15;;;;;;;2.17;1.23;;;;;;;12.70;100.00;101755.41;5083734;28;20379;-68
2023/09/14 00:32:42;;;;;;;1.98;1.13;;;;;;;12.61;100.00;101761.94;5086278;28;20033;-69
2023/09/14 00:35:09;;;;;;;2.50;1.20;;;;;;;12.65;100.00;101760.56;5063358;28;20030;-68
2023/09/14 00:37:35;;;;;;;2.03;1.15;;;;;;;12.38;100.00;101737.81;5063431;28;20047;-69
2023/09/14 00:40:06;;;;;;;3.35;1.17;;;;;;;12.64;100.00;101752.63;5044351;28;20036;-69
2023/09/14 00:42:38;;;;;;;1.50;1.10;;;;;;;12.48;100.00;101728.53;5066222;28;20078;-70
2023/09/14 00:45:08;;;;;;;4.32;1.30;;;;;;;12.60;100.00;101735.13;5080100;28;20031;-69
2023/09/14 00:47:35;;;;;;;1.75;1.20;;;;;;;12.75;100.00;101764.78;5059652;28;20024;-69
2023/09/14 00:50:03;;;;;;;2.97;1.10;;;;;;;12.72;100.00;101765.22;5058532;28;20491;-69
2023/09/14 00:52:30;;;;;;;1.42;1.10;;;;;;;12.68;100.00;101754.78;5076390;28;20031;-69
2023/09/14 00:54:55;;;;;;;4.72;1.38;;;;;;;12.78;100.00;101772.53;5076987;28;20051;-69
2023/09/14 00:57:21;;;;;;;3.28;1.30;;;;;;;12.76;100.00;101767.31;5042348;28;20467;-68
2023/09/14 00:59:47;;;;;;;3.63;1.55;;;;;;;12.72;100.00;101754.41;5057651;28;20064;-68
2023/09/14 01:02:12;;;;;;;1.70;1.20;;;;;;;12.67;100.00;101772.00;5058477;28;20043;-69
2023/09/14 01:04:38;;;;;;;2.33;1.27;;;;;;;12.84;100.00;101774.47;5042054;28;20086;-69
2023/09/14 01:07:03;;;;;;;2.85;1.33;;;;;;;12.84;100.00;101771.75;5059635;28;20028;-69
2023/09/14 01:09:29;;;;;;;2.13;1.25;;;;;;;12.90;100.00;101779.13;5076807;28;20048;-69
2023/09/14 01:11:56;;;;;;;3.03;1.33;;;;;;;12.91;100.00;101780.78;5077211;28;20036;-69
2023/09/14 01:14:35;;;;;;;5.93;1.10;;;;;;;12.79;100.00;101782.31;5077135;28;20029;-69
2023/09/14 01:17:08;;;;;;;1.50;1.10;;;;;;;12.82;100.00;101781.94;5077202;28;20029;-69
2023/09/14 01:19:52;;;;;;;1.48;1.10;;;;;;;12.92;100.00;101798.69;5076344;28;20029;-69
2023/09/14 01:22:32;;;;;;;2.67;1.30;;;;;;;12.92;100.00;101798.69;5077224;28;20024;-69
2023/09/14 01:25:08;;;;;;;1.70;1.23;;;;;;;12.82;100.00;101796.28;5058505;28;20083;-69
2023/09/14 01:27:33;;;;;;;3.05;1.35;;;;;;;12.81;100.00;101791.03;5076700;28;20024;-68
2023/09/14 01:30:00;;;;;;;2.67;1.35;;;;;;;12.90;100.00;101806.13;5059156;28;20089;-69
2023/09/14 01:32:28;;;;;;;2.47;1.38;;;;;;;12.91;100.00;101802.38;5077103;28;20048;-69
2023/09/14 01:34:55;;;;;;;2.75;1.10;;;;;;;12.76;100.00;101791.63;5059320;28;20040;-69
2023/09/14 01:37:21;;;;;;;1.98;1.13;;;;;;;12.70;100.00;101777.00;5058959;28;20029;-68
2023/09/14 01:39:47;;;;;;;3.05;1.30;;;;;;;12.85;100.00;101797.78;5076774;28;20028;-69
2023/09/14 01:42:12;;;;;;;1.52;1.25;;;;;;;12.85;100.00;101803.16;5058452;28;20020;-69
2023/09/14 01:44:39;;;;;;;3.03;1.33;;;;;;;12.82;100.00;101801.69;5080456;28;20042;-69
2023/09/14 01:47:05;;;;;;;1.58;1.00;;;;;;;12.80;100.00;101794.78;5070804;28;20423;-69
2023/09/14 01:49:30;;;;;;;2.25;1.20;;;;;;;12.63;100.00;101777.97;5088006;28;20040;-68
2023/09/14 01:51:56;;;;;;;3.47;1.20;;;;;;;12.77;100.00;101804.09;5084362;28;20025;-68
2023/09/14 01:54:21;;;;;;;1.92;1.15;;;;;;;12.79;100.00;101810.16;5066401;28;20052;-69
2023/09/14 01:56:47;;;;;;;3.40;1.20;;;;;;;12.78;100.00;101803.09;5084918;28;20028;-69
2023/09/14 01:59:12;;;;;;;3.50;1.30;;;;;;;12.80;100.00;101800.19;5066393;28;20096;-69
2023/09/14 02:01:38;;;;;;;2.17;1.20;;;;;;;12.68;100.00;101791.72;5084411;28;20032;-69
2023/09/14 02:04:04;;;;;;;1.58;1.10;;;;;;;12.73;100.00;101810.91;5069618;28;20123;-69
2023/09/14 02:06:29;;;;;;;2.20;1.20;;;;;;;12.71;100.00;101810.25;5053321;28;20056;-68
2023/09/14 02:08:55;;;;;;;2.97;1.30;;;;;;;12.53;100.00;101799.03;5069804;28;20036;-68
2023/09/14 02:11:20;;;;;;;3.38;1.30;;;;;;;12.66;100.00;101802.72;5069073;28;20028;-69
2023/09/14 02:13:46;;;;;;;3.03;1.20;;;;;;;12.72;100.00;101813.81;5053004;28;20048;-69
2023/09/14 02:16:11;;;;;;;2.92;1.20;;;;;;;12.67;100.00;101809.78;5067828;28;20119;-69
2023/09/14 02:18:37;;;;;;;2.90;1.30;;;;;;;12.65;100.00;101805.63;5068493;28;20024;-69
2023/09/14 02:21:03;;;;;;;3.00;1.20;;;;;;;12.65;100.00;101808.34;5069820;28;20104;-69
2023/09/14 02:23:28;;;;;;;1.75;1.00;;;;;;;12.53;100.00;101794.47;5068995;28;20028;-69
2023/09/14 02:25:53;;;;;;;3.58;1.23;;;;;;;12.56;100.00;101791.38;5068859;28;20032;-68
2023/09/14 02:28:20;;;;;;;2.78;1.20;;;;;;;12.23;100.00;101739.66;5086565;28;20138;-68
2023/09/14 02:30:46;;;;;;;2.88;1.40;;;;;;;12.57;100.00;101797.63;5036624;28;20032;-68
2023/09/14 02:33:11;;;;;;;2.67;1.25;;;;;;;12.48;100.00;101796.03;5086558;28;20070;-69
2023/09/14 02:35:39;;;;;;;3.63;1.30;;;;;;;12.47;100.00;101795.19;5068429;28;20062;-69
2023/09/14 02:38:04;;;;;;;3.13;1.05;;;;;;;12.34;100.00;101768.88;5086725;28;20025;-68
2023/09/14 02:40:30;;;;;;;1.60;1.15;;;;;;;12.56;100.00;101793.25;5068476;28;20046;-69
2023/09/14 02:42:58;;;;;;;2.15;1.20;;;;;;;12.56;100.00;101795.94;5086134;28;20020;-69
2023/09/14 02:45:24;;;;;;;2.15;1.30;;;;;;;12.55;100.00;101794.25;5058594;28;20071;-68
2023/09/14 02:47:49;;;;;;;1.77;1.25;;;;;;;12.54;100.00;101790.72;5082120;28;20663;-68
2023/09/14 02:50:15;;;;;;;4.20;1.20;;;;;;;12.50;100.00;101786.72;5084258;28;20083;-69
2023/09/14 02:52:41;;;;;;;1.52;1.00;;;;;;;12.50;100.00;101781.34;5083316;28;20020;-69
2023/09/14 02:55:07;;;;;;;3.50;1.10;;;;;;;12.40;100.00;101778.09;5084589;28;20028;-68
2023/09/14 02:57:32;;;;;;;2.30;1.27;;;;;;;12.25;100.00;101761.91;5063234;28;20036;-68
2023/09/14 02:59:58;;;;;;;4.13;1.50;;;;;;;12.37;100.00;101794.66;5079197;28;20028;-68
2023/09/14 03:02:23;;;;;;;2.75;1.48;;;;;;;12.34;100.00;101806.66;5061037;28;20117;-68
2023/09/14 03:04:49;;;;;;;2.63;1.40;;;;;;;12.31;100.00;101800.78;5064575;28;20530;-68
2023/09/14 03:07:16;;;;;;;3.47;1.20;;;;;;;12.24;100.00;101806.09;5085250;28;20417;-68
2023/09/14 03:09:41;;;;;;;2.13;1.40;;;;;;;12.19;100.00;101803.97;5084957;28;20111;-68
2023/09/14 03:12:07;;;;;;;2.60;1.30;;;;;;;12.11;100.00;101798.63;5084933;28;20032;-68
2023/09/14 03:14:32;;;;;;;2.92;1.27;;;;;;;12.08;100.00;101801.69;5067001;28;20047;-68
2023/09/14 03:16:58;;;;;;;1.73;1.23;;;;;;;12.08;100.00;101809.78;5066759;28;20062;-68
2023/09/14 03:19:24;;;;;;;2.50;1.17;;;;;;;12.04;100.00;101803.09;5085331;28;20036;-68
2023/09/14 03:21:50;;;;;;;2.70;1.17;;;;;;;11.90;100.00;101787.75;5067297;28;20054;-68
2023/09/14 03:24:15;;;;;;;2.10;1.20;;;;;;;11.90;100.00;101799.38;5051003;28;20131;-68
2023/09/14 03:26:40;;;;;;;2.58;1.15;;;;;;;11.75;100.00;101810.09;5085268;28;20025;-68
2023/09/14 03:29:06;;;;;;;2.70;1.25;;;;;;;11.89;100.00;101811.19;5049102;28;20502;-68
2023/09/14 03:31:32;;;;;;;1.50;1.02;;;;;;;11.92;100.00;101816.22;5084399;28;20028;-68
2023/09/14 03:33:58;;;;;;;3.35;1.48;;;;;;;11.73;100.00;101790.56;5047569;28;20034;-68
2023/09/14 03:36:23;;;;;;;2.65;1.33;;;;;;;11.80;100.00;101812.25;5083309;28;20059;-68
2023/09/14 03:38:49;;;;;;;1.80;1.27;;;;;;;11.77;100.00;101812.59;5081949;28;20088;-68
2023/09/14 03:41:14;;;;;;;3.08;1.40;;;;;;;11.79;100.00;101817.81;5073828;28;20028;-68
2023/09/14 03:43:40;;;;;;;4.22;1.50;;;;;;;11.50;100.00;101805.94;5061896;28;20032;-68
2023/09/14 03:46:06;;;;;;;1.90;1.40;;;;;;;11.70;100.00;101823.28;5082142;28;20079;-68
2023/09/14 03:48:31;;;;;;;4.35;1.50;;;;;;;11.57;100.00;101798.78;5082664;28;20021;-68
2023/09/14 03:50:59;;;;;;;2.40;1.45;;;;;;;11.54;100.00;101815.31;5082961;28;20047;-68
2023/09/14 03:53:27;;;;;;;5.00;1.55;;;;;;;11.66;100.00;101813.88;5081891;28;20067;-68
2023/09/14 03:55:54;;;;;;;3.42;1.35;;;;;;;11.64;100.00;101815.09;5049857;28;20032;-68
2023/09/14 03:58:21;;;;;;;3.13;1.40;;;;;;;11.63;100.00;101825.03;5050198;28;20048;-69
2023/09/14 04:00:46;;;;;;;2.45;1.45;;;;;;;11.65;100.00;101822.97;5030475;28;20067;-66
2023/09/14 04:03:12;;;;;;;3.30;1.50;;;;;;;11.58;100.00;101805.84;5077163;28;20052;-67
2023/09/14 04:05:37;;;;;;;2.92;1.60;;;;;;;11.68;100.00;101825.31;5063234;28;20086;-66
2023/09/14 04:08:03;;;;;;;3.25;1.45;;;;;;;11.60;100.00;101811.91;5081381;28;20067;-67
2023/09/14 04:10:28;;;;;;;2.40;1.33;;;;;;;11.65;100.00;101812.19;5082367;28;20025;-67
2023/09/14 04:13:17;;;;;;;2.38;1.60;;;;;;;11.63;100.00;101814.25;5082478;28;20115;-66
2023/09/14 04:15:43;;;;;;;3.58;1.38;;;;;;;11.70;100.00;101830.53;5061644;28;20039;-69
2023/09/14 04:18:08;;;;;;;3.33;1.42;;;;;;;11.60;100.00;101817.31;5042425;28;20029;-67
2023/09/14 04:20:34;;;;;;;4.15;1.83;;;;;;;11.71;100.00;101830.34;5082093;28;20058;-68
2023/09/14 04:22:59;;;;;;;4.63;1.60;;;;;;;11.72;100.00;101832.03;5050630;28;20063;-68
2023/09/14 04:25:25;;;;;;;4.10;1.80;;;;;;;11.54;100.00;101836.88;5083740;28;20024;-67
2023/09/14 04:27:50;;;;;;;3.45;1.65;;;;;;;11.50;100.00;101812.16;5081463;28;20046;-68
2023/09/14 04:30:16;;;;;;;4.28;1.55;;;;;;;11.43;100.00;101815.75;5044427;28;20039;-67
2023/09/14 04:32:41;;;;;;;2.67;1.63;;;;;;;11.48;100.00;101824.97;5077860;28;20100;-67
2023/09/14 04:35:07;;;;;;;2.70;1.60;;;;;;;11.50;100.00;101825.63;5059993;28;20526;-67
2023/09/14 04:37:33;;;;;;;5.68;2.10;;;;;;;11.46;100.00;101818.09;5073331;28;20120;-67
2023/09/14 04:39:58;;;;;;;2.88;1.55;;;;;;;11.50;100.00;101825.63;5025525;28;20052;-66
2023/09/14 04:42:23;;;;;;;2.97;1.67;;;;;;;11.43;100.00;101818.44;5076748;28;20039;-66
2023/09/14 04:44:51;;;;;;;3.08;1.88;;;;;;;11.48;100.00;101826.81;5027394;28;20040;-67
2023/09/14 04:47:17;;;;;;;3.70;2.00;;;;;;;11.25;100.00;101827.66;5043808;28;20491;-68
2023/09/14 04:49:42;;;;;;;4.60;2.20;;;;;;;11.41;100.00;101831.25;5059192;28;20123;-67
2023/09/14 04:52:07;;;;;;;5.22;2.10;;;;;;;11.36;100.00;101820.19;5039541;28;20036;-68
2023/09/14 04:54:33;;;;;;;3.83;1.88;;;;;;;11.44;100.00;101820.94;5057322;28;20029;-67
2023/09/14 04:56:58;;;;;;;2.97;2.20;;;;;;;11.65;100.00;101771.75;5076638;28;20475;-67
2023/09/14 04:59:24;;;;;;;4.25;2.40;;;;;;;12.32;99.56;101822.22;5058613;28;20487;-67
2023/09/14 05:01:50;;;;;;;3.10;2.15;;;;;;;12.59;98.30;101815.31;5041939;28;20043;-67
2023/09/14 05:04:15;;;;;;;2.63;2.05;;;;;;;12.93;97.85;101825.50;5076116;28;20518;-67
2023/09/14 05:06:41;;;;;;;3.88;1.80;;;;;;;13.22;95.97;101822.91;5078909;28;20033;-67
2023/09/14 05:09:06;;;;;;;2.70;2.00;;;;;;;13.55;94.44;101816.00;5062931;28;20514;-68
2023/09/14 05:11:31;;;;;;;2.67;2.00;;;;;;;14.05;91.68;101800.56;5043649;28;20040;-67
2023/09/14 05:13:57;;;;;;;3.08;2.17;;;;;;;14.54;88.49;101828.59;5060520;28;20066;-67
2023/09/14 05:16:23;;;;;;;5.70;2.20;;;;;;;14.89;86.16;101832.09;5077320;28;20029;-67
2023/09/14 05:18:48;;;;;;;3.15;2.15;;;;;;;15.26;84.47;101835.31;5041291;28;20034;-67
2023/09/14 05:21:13;;;;;;;2.53;1.88;;;;;;;15.55;82.07;101839.56;5077783;28;20029;-66
2023/09/14 05:23:39;;;;;;;3.25;2.00;;;;;;;15.12;82.95;101842.59;5061436;28;20040;-67
2023/09/14 05:26:04;;;;;;;3.72;2.13;;;;;;;14.39;87.09;101846.81;5079608;28;20043;-67
2023/09/14 05:28:30;;;;;;;3.38;2.00;;;;;;;13.98;89.73;101845.69;5059951;28;20033;-67
2023/09/14 05:30:55;;;;;;;5.07;2.28;;;;;;;13.82;91.52;101848.69;5043901;28;20038;-67
2023/09/14 05:33:21;;;;;;;3.78;2.05;;;;;;;13.70;92.85;101845.66;5064248;28;20054;-68
2023/09/14 05:35:48;;;;;;;3.15;1.77;;;;;;;13.49;95.63;101851.91;5046576;28;20036;-67
2023/09/14 05:38:15;;;;;;;3.15;1.80;;;;;;;13.60;95.89;101845.97;5050617;28;20032;-67
2023/09/14 05:40:40;;;;;;;4.05;2.10;;;;;;;13.43;96.58;101825.66;5086193;28;20448;-67
2023/09/14 05:43:05;;;;;;;8.10;1.63;;;;;;;13.67;97.44;101856.84;5067851;28;20085;-67
2023/09/14 05:45:31;;;;;;;2.42;1.70;;;;;;;13.80;98.02;101864.25;5068337;28;20032;-67
2023/09/14 05:47:56;;;;;;;2.47;1.70;;;;;;;13.69;99.61;101862.94;5068610;28;20119;-67
2023/09/14 05:50:22;;;;;;;5.82;2.10;;;;;;;13.55;100.00;101840.34;5069358;28;20031;-67
2023/09/14 05:52:47;;;;;;;2.60;1.67;;;;;;;13.77;100.00;101860.06;5066876;28;20033;-66
2023/09/14 05:55:13;;;;;;;3.38;1.88;;;;;;;13.84;100.00;101866.41;5061368;28;20487;-67
2023/09/14 05:57:38;;;;;;;3.92;1.70;;;;;;;13.91;100.00;101866.47;5045655;28;20479;-68
2023/09/14 06:00:13;;;;;;;3.13;1.77;;;;;;;13.98;100.00;101869.22;5080234;28;20471;-67
2023/09/14 06:02:42;;;;;;;3.13;2.00;;;;;;;14.02;100.00;101865.91;5081484;28;20043;-67
2023/09/14 06:05:08;;;;;;;5.13;1.75;;;;;;;13.99;100.00;101865.47;5063587;28;20039;-67
2023/09/14 06:07:33;;;;;;;2.83;1.90;;;;;;;13.94;100.00;101857.97;5062949;28;20133;-67
2023/09/14 06:09:59;;;;;;;3.80;1.80;;;;;;;14.16;100.00;101880.38;5062345;28;20029;-67
2023/09/14 06:12:24;;;;;;;4.03;1.70;;;;;;;14.10;100.00;101844.13;5063966;28;20028;-67
2023/09/14 06:14:49;;;;;;;7.55;1.77;;;;;;;14.33;100.00;101868.22;5063014;28;20513;-67
2023/09/14 06:17:15;;;;;;;4.15;1.83;;;;;;;14.44;100.00;101877.69;5061633;28;20051;-67
2023/09/14 06:19:40;;;;;;;3.65;2.00;;;;;;;14.42;100.00;101882.44;5079421;28;20429;-67
2023/09/14 06:22:06;;;;;;;2.75;1.83;;;;;;;14.56;100.00;101888.81;5045656;28;20063;-67
2023/09/14 06:24:31;;;;;;;5.03;2.13;;;;;;;14.65;100.00;101881.38;5061702;28;20033;-67
2023/09/14 06:26:57;;;;;;;5.53;2.10;;;;;;;14.66;100.00;101877.63;5061799;28;20029;-67
2023/09/14 06:29:22;;;;;;;3.35;2.20;;;;;;;14.36;100.00;101869.69;5080008;28;20387;-67
2023/09/14 06:31:48;;;;;;;5.55;2.03;;;;;;;14.54;100.00;101866.53;5059987;28;20036;-67
2023/09/14 06:34:13;;;;;;;4.45;2.00;;;;;;;14.52;100.00;101855.88;5058707;28;20032;-67
2023/09/14 06:36:39;;;;;;;3.90;1.80;;;;;;;14.62;100.00;101876.34;5085926;28;20028;-67
2023/09/14 06:39:04;;;;;;;8.80;2.40;;;;;;;14.64;100.00;101877.00;5052742;28;20124;-67
2023/09/14 06:41:30;;;;;;;3.40;2.03;;;;;;;14.69;100.00;101891.59;5047608;28;20033;-67
2023/09/14 06:43:55;;;;;;;6.93;2.20;;;;;;;14.75;100.00;101888.09;5079598;28;20086;-67
2023/09/14 06:46:21;;;;;;;7.65;2.30;;;;;;;14.79;100.00;101893.94;5061035;28;20028;-67
2023/09/14 06:48:46;;;;;;;7.10;2.00;;;;;;;14.88;100.00;101891.91;5060711;28;20024;-67
2023/09/14 06:51:12;;;;;;;4.65;2.17;;;;;;;14.84;100.00;101890.66;5079216;28;20040;-67
2023/09/14 06:53:37;;;;;;;4.57;2.20;;;;;;;14.61;100.00;101880.13;5061007;28;20142;-67
2023/09/14 06:56:07;;;;;;;4.63;2.53;;;;;;;14.93;100.00;101905.69;5057165;28;20424;-67
2023/09/14 06:58:32;;;;;;;4.20;2.40;;;;;;;15.04;100.00;101907.84;5060376;28;20523;-67
2023/09/14 07:01:02;;;;;;;7.65;2.45;;;;;;;15.27;100.00;101905.63;5061009;28;20108;-67
2023/09/14 07:03:28;;;;;;;3.58;2.28;;;;;;;15.26;100.00;101889.56;5044945;28;20187;-67
2023/09/14 07:05:53;;;;;;;7.68;2.75;;;;;;;15.42;100.00;101897.31;5045287;28;20062;-66
2023/09/14 07:08:18;;;;;;;4.35;2.25;;;;;;;15.38;100.00;101898.78;5061372;28;20423;-67
2023/09/14 07:10:44;;;;;;;6.82;2.47;;;;;;;15.45;100.00;101893.38;5061547;28;20503;-66
2023/09/14 07:13:09;;;;;;;5.60;2.45;;;;;;;15.58;100.00;101904.25;5079763;28;20016;-67
2023/09/14 07:15:35;;;;;;;4.57;2.53;;;;;;;15.63;100.00;101901.78;5061631;28;20036;-67
2023/09/14 07:18:00;;;;;;;17.20;2.90;;;;;;;15.46;100.00;101898.63;5078719;28;20111;-67
2023/09/14 07:20:26;;;;;;;8.65;2.28;;;;;;;15.64;100.00;101910.75;5078654;28;20028;-67
2023/09/14 07:22:51;;;;;;;9.05;2.60;;;;;;;15.76;100.00;101908.28;5061046;28;20067;-67
2023/09/14 07:25:17;;;;;;;4.55;2.25;;;;;;;15.99;100.00;101916.88;5078503;28;20025;-68
2023/09/14 07:27:42;;;;;;;9.50;2.13;;;;;;;16.29;100.00;101920.03;5078865;28;20413;-66
2023/09/14 07:30:08;;;;;;;5.10;2.63;;;;;;;16.54;100.00;101908.50;5078637;28;20055;-67
2023/09/14 07:32:34;;;;;;;9.43;2.47;;;;;;;16.43;100.00;101897.22;5060804;28;20043;-66
2023/09/14 07:35:01;;;;;;;15.40;2.40;;;;;;;16.66;100.00;101890.50;5043495;28;20458;-66
2023/09/14 07:37:26;;;;;;;13.27;2.65;;;;;;;16.78;100.00;101888.81;5075148;28;20438;-67
2023/09/14 07:39:52;;;;;;;7.78;2.58;;;;;;;17.01;100.00;101898.34;5077160;28;20024;-67
2023/09/14 07:42:17;;;;;;;11.48;2.65;;;;;;;16.97;100.00;101902.56;5061124;28;20547;-67
2023/09/14 07:44:42;;;;;;;12.07;2.50;;;;;;;16.90;100.00;101894.44;5086320;28;20028;-67
2023/09/14 07:47:08;;;;;;;8.75;2.65;;;;;;;17.10;100.00;101895.19;5058399;28;20044;-71
2023/09/14 07:49:33;;;;;;;10.45;2.67;;;;;;;17.14;99.97;101895.56;5072405;28;20070;-75
2023/09/14 07:51:59;;;;;;;16.20;3.15;;;;;;;17.37;99.52;101889.59;5076691;28;20471;-69
2023/09/14 07:54:24;;;;;;;9.93;2.72;;;;;;;17.17;100.00;101906.03;5079025;28;20088;-67
2023/09/14 07:56:50;;;;;;;8.75;2.40;;;;;;;17.42;100.00;101897.97;5078367;28;20023;-67
2023/09/14 07:59:15;;;;;;;10.95;2.70;;;;;;;17.64;99.51;101892.16;5059196;28;20437;-67
2023/09/14 08:01:41;;;;;;;16.38;2.42;;;;;;;17.87;99.27;101891.63;5042668;28;20032;-67
2023/09/14 08:04:06;;;;;;;10.38;2.38;;;;;;;17.94;98.95;101889.66;5077764;28;20503;-68
2023/09/14 08:06:33;;;;;;;14.00;2.92;;;;;;;18.31;97.85;101896.06;5060017;28;20062;-68
2023/09/14 08:08:59;;;;;;;12.13;2.60;;;;;;;18.41;97.55;101898.25;5043513;28;20028;-67
2023/09/14 08:11:26;;;;;;;12.00;2.63;;;;;;;18.55;96.82;101897.09;5060326;28;20440;-67
2023/09/14 08:13:52;;;;;;;15.98;2.55;;;;;;;18.66;96.55;101915.41;5077451;28;20021;-67
2023/09/14 08:16:19;;;;;;;11.05;2.33;;;;;;;18.62;97.09;101916.94;5077259;28;20449;-68
2023/09/14 08:18:45;;;;;;;14.13;3.72;;;;;;;18.71;96.85;101918.31;5059054;28;20096;-67
2023/09/14 08:21:10;;;;;;;14.93;3.28;;;;;;;18.91;96.55;101922.75;5059430;28;20063;-67
2023/09/14 08:23:36;;;;;;;9.20;2.42;;;;;;;18.95;95.86;101904.84;5059242;28;20025;-66
2023/09/14 08:26:05;;;;;;;9.98;2.38;;;;;;;19.07;95.49;101905.75;5059488;28;20024;-67
2023/09/14 08:28:31;;;;;;;6.97;2.10;;;;;;;19.27;94.47;101913.69;5058660;28;20025;-67
2023/09/14 08:30:56;;;;;;;8.80;2.35;;;;;;;19.37;93.91;101913.13;5076933;28;20036;-70
2023/09/14 08:33:22;;;;;;;8.25;2.30;;;;;;;19.65;92.56;101904.38;5042107;28;20433;-67
2023/09/14 08:35:47;;;;;;;13.15;2.13;;;;;;;19.49;91.62;101892.19;5077060;28;20029;-67
2023/09/14 08:38:13;;;;;;;5.45;1.67;;;;;;;19.45;91.32;101886.34;5025856;28;20032;-67
2023/09/14 08:40:41;;;;;;;7.72;2.40;;;;;;;19.67;91.29;101904.97;5076710;28;20025;-67
2023/09/14 08:43:10;;;;;;;6.63;1.95;;;;;;;19.75;91.10;101899.16;5078798;28;20388;-68
2023/09/14 08:45:37;;;;;;;8.32;1.98;;;;;;;19.81;90.55;101897.41;5080276;28;20028;-67
2023/09/14 08:48:04;;;;;;;3.70;1.65;;;;;;;20.00;89.72;101901.72;5081250;28;20020;-67
2023/09/14 08:50:31;;;;;;;4.55;2.10;;;;;;;20.07;89.71;101902.44;5078199;28;20436;-67
2023/09/14 08:52:57;;;;;;;6.10;1.75;;;;;;;20.07;89.95;101909.81;5058512;28;20024;-67
2023/09/14 08:55:25;;;;;;;6.72;1.90;;;;;;;20.07;89.80;101896.97;5076361;28;20028;-68
2023/09/14 08:57:52;;;;;;;4.07;1.60;;;;;;;19.96;90.28;101900.50;5076914;28;20032;-68
2023/09/14 09:00:19;;;;;;;8.02;2.00;;;;;;;19.80;90.11;101896.59;5059805;28;20033;-70
2023/09/14 09:02:49;;;;;;;5.97;2.08;;;;;;;19.73;90.41;101895.84;5058429;28;20522;-69
2023/09/14 09:05:16;;;;;;;8.77;2.08;;;;;;;19.67;90.23;101874.94;5077416;28;20081;-67
2023/09/14 09:07:43;;;;;;;6.00;2.33;;;;;;;19.79;90.31;101889.44;5059104;28;20120;-67
2023/09/14 09:10:26;;;;;;;6.30;2.17;;;;;;;19.82;90.17;101901.81;5077203;28;20026;-67
2023/09/14 09:13:03;;;;;;;8.60;2.22;;;;;;;19.84;89.82;101918.81;5058760;28;20465;-68
2023/09/14 09:15:36;;;;;;;8.70;2.28;;;;;;;19.84;90.21;101927.81;5077127;28;20036;-67
2023/09/14 09:18:05;;;;;;;7.50;1.77;;;;;;;19.81;90.25;101916.53;5054798;28;20028;-67
2023/09/14 09:20:30;;;;;;;5.55;1.80;;;;;;;19.72;89.87;101905.09;5076751;28;20047;-68
2023/09/14 09:22:59;;;;;;;3.00;1.70;;;;;;;19.79;89.98;101915.94;5076863;28;20020;-67
2023/09/14 09:25:25;;;;;;;4.60;1.90;;;;;;;19.79;89.62;101916.75;5077057;28;20099;-69
2023/09/14 09:28:01;;;;;;;3.60;2.00;;;;;;;19.71;89.57;101901.53;5076709;28;20103;-67
2023/09/14 09:30:31;;;;;;;5.90;1.80;;;;;;;19.85;90.12;101921.28;5076822;28;20033;-69
2023/09/14 09:32:57;;;;;;;3.88;1.45;;;;;;;19.87;90.24;101929.25;5059093;28;20109;-67
2023/09/14 09:35:25;;;;;;;4.03;1.85;;;;;;;19.86;90.22;101938.50;5059739;28;20056;-67
2023/09/14 09:37:53;;;;;;;3.65;1.80;;;;;;;19.84;90.26;101937.91;5076983;28;20063;-68
2023/09/14 09:40:23;;;;;;;6.30;1.88;;;;;;;19.83;90.34;101938.97;5059135;28;20052;-67
2023/09/14 09:42:50;;;;;;;4.05;1.58;;;;;;;19.75;90.58;101928.38;5052817;28;20493;-69
2023/09/14 09:45:18;;;;;;;6.85;1.55;;;;;;;19.79;90.25;101926.84;5076748;28;20452;-73
2023/09/14 09:47:44;;;;;;;4.18;1.63;;;;;;;19.75;89.90;101912.81;5077006;28;20044;-71
2023/09/14 09:50:14;;;;;;;3.95;1.80;;;;;;;20.00;89.70;101925.47;5055199;28;20495;-70
2023/09/14 09:52:41;;;;;;;7.57;1.60;;;;;;;20.05;89.60;101926.44;5072361;28;20028;-83
2023/09/14 09:55:14;;;;;;;2.83;1.50;;;;;;;20.04;89.50;101913.84;5056978;28;20033;-67
2023/09/14 09:57:51;;;;;;;3.45;1.45;;;;;;;20.14;89.36;101922.28;5063222;28;20020;-69
2023/09/14 10:00:19;;;;;;;3.38;1.52;;;;;;;20.17;88.79;101918.25;5082482;28;20033;-79
2023/09/14 10:02:45;;;;;;;2.97;1.38;;;;;;;20.16;88.60;101903.78;5081112;28;20033;-67
2023/09/14 10:05:11;;;;;;;3.33;1.40;;;;;;;20.46;88.15;101921.13;5076931;28;20049;-66
2023/09/14 10:07:39;;;;;;;4.53;1.33;;;;;;;20.52;87.87;101915.56;5059026;28;20029;-67
2023/09/14 10:10:09;;;;;;;1.80;1.17;;;;;;;20.59;87.50;101916.25;5059980;28;20028;-66
2023/09/14 10:12:39;;;;;;;3.53;1.40;;;;;;;20.57;86.95;101896.53;5043871;28;20103;-66
2023/09/14 10:15:07;;;;;;;1.67;1.20;;;;;;;20.79;86.73;101910.41;5059011;28;20036;-69
2023/09/14 10:17:33;;;;;;;3.10;1.05;;;;;;;20.88;86.05;101894.47;5058675;28;20029;-73
2023/09/14 10:20:00;;;;;;;5.30;1.10;;;;;;;21.15;85.48;101918.53;5076992;28;20036;-71
2023/09/14 10:22:26;;;;;;;2.60;1.10;;;;;;;21.22;84.79;101924.69;5076155;28;20039;-67
2023/09/14 10:24:53;;;;;;;5.05;1.20;;;;;;;21.11;84.63;101924.50;5059996;28;20024;-70
2023/09/14 10:27:19;;;;;;;1.33;1.00;;;;;;;21.15;84.00;101927.59;5079423;28;20020;-66
2023/09/14 10:29:45;;;;;;;1.83;1.30;;;;;;;20.94;84.34;101933.72;5079312;28;20391;-66
2023/09/14 10:32:12;;;;;;;2.72;1.20;;;;;;;20.78;84.67;101936.09;5082358;28;20048;-67
2023/09/14 10:34:41;;;;;;;1.45;1.23;;;;;;;20.72;84.48;101922.56;5064418;28;20063;-66
2023/09/14 10:37:07;;;;;;;2.05;1.23;;;;;;;20.88;84.15;101936.31;5062912;28;20055;-68
2023/09/14 10:39:34;;;;;;;3.40;1.40;;;;;;;21.00;83.69;101947.25;5067671;28;20056;-68
2023/09/14 10:41:59;;;;;;;1.90;1.20;;;;;;;20.96;83.99;101935.16;5085870;28;20047;-73
2023/09/14 10:44:27;;;;;;;1.73;1.17;;;;;;;21.05;84.21;101941.06;5065881;28;20056;-67
2023/09/14 10:46:56;;;;;;;3.67;1.33;;;;;;;21.03;84.23;101937.75;5066295;28;20032;-68
2023/09/14 10:49:28;;;;;;;1.55;1.20;;;;;;;21.17;84.71;101950.06;5085661;28;20024;-68
2023/09/14 10:51:54;;;;;;;1.90;1.35;;;;;;;21.22;84.63;101954.81;5083667;28;20020;-68
2023/09/14 10:54:25;;;;;;;1.58;1.27;;;;;;;21.34;84.37;101939.19;5084473;28;20066;-69
2023/09/14 10:57:13;;;;;;;4.45;1.42;;;;;;;21.41;84.09;101937.16;5085297;28;20024;-68
2023/09/14 11:00:30;;;;;;;1.73;1.35;;;;;;;21.25;84.33;101927.78;5079694;28;20031;-69
2023/09/14 11:02:55;;;;;;;2.85;1.45;;;;;;;20.98;85.64;101941.19;5032728;28;20040;-67
2023/09/14 11:05:25;;;;;;;2.80;1.60;;;;;;;20.89;86.00;101942.63;5067485;28;20115;-68
2023/09/14 11:08:01;;;;;;;3.17;1.50;;;;;;;20.57;86.87;101918.41;5080832;28;20016;-67
2023/09/14 11:10:28;;;;;;;2.30;1.30;;;;;;;20.61;87.22;101936.00;5077567;28;20032;-66
2023/09/14 11:13:35;;;;;;;4.30;1.30;;;;;;;20.55;87.31;101936.94;5066532;28;20036;-71
2023/09/14 11:16:40;;;;;;;3.60;1.67;;;;;;;20.52;87.24;101942.91;5001757;28;20608;-69
2023/09/14 11:19:05;;;;;;;4.70;1.70;;;;;;;20.41;88.16;101935.50;5064394;28;20028;-74